aviador You're here:

MMCN Decoded Metar

CIUDAD OBREGON in MEXICO
Report Time2017-10-20 14:40:00
UTC Time2017-10-20 16:00:50
Flight Rules Old
Wind100° at 10 kt
W.Decomp.*RWY 13: 7.7 kt HW 6.4 kt LCW
W.Rank100° ranks 15
Current wind is above 100° avg. (5.5)
Visibility9999 m
Phenomena:N/A
Clouds:N/A
Expected CloudBase > 7,200 ft AGL from Temp-Dew spread
CeilingNone
Temp27°C (ISA +12)
Dew Point09°C (32% RH)
Heat Index26.5°C
AAT23.2°C
QNH1010 hPa
Density Alt1,814 ft
Elevation141 ft
Report Wrong Elevation
Raw Report
METAR MMCN 201440Z 10010KT 12SM SKC 27/09 A2982 RMK SLP098=

Extra information for MMCN:More info

Metar Taf Metar & Taf Last 4 Metars F.Rules Stats Wind Profile Meteogram Temp Stats Airport Information Weather charts Add Link Nearby VenuesMetar ALERT Operation Metar Decoded Social comments